GUH weather

Gunnedah Airport
New South Wales, Australia

Public forecast

Using degrees Celsius for public forecast. Weather courtesy of forecast.io.

Closest aviation weather report (METAR) to Gunnedah Airport

Closest report is Tamworth Airport, 31.5 nm (58.4 km) ESE. Retrieved 2019/10/18 02:30 UTC (24 minutes ago):

YSTW 180230Z AUTO 33009KT 9999 // NCD 23/M07 Q1018 RF000/0000

Closest aviation forecast (TAF) to Gunnedah Airport

Closest forecast is Tamworth Airport, 31.5 nm (58.4 km) ESE. Retrieved 2019-10-18 00:36 UTC (2 hours ago):

TAF YSTW 172253Z 1800/1818 28008KT CAVOK FM181000 15008KT CAVOK